Nan May — D5KO8 — position and weather

sailwx.info

Track history (hours):
 
Tides and Currents Weather Stations Pressure Air Temp Water Temp Dewpoint Dewpoint Depression Visibility Wind Speed Wind Dir Waves Ship Positions

Nan May

Last reported at 2017-Nov-25 16:00 UTC. Time now 2018-Jan-21 03:08 UTC.
Position N 41°17' E 140°13'.
Warning: this ship's position is 56 days out of date.

Length 228 m; draft 12.7 m.

Type: Cargo ship. MMSI: 636017371.

Date/timePositionNaut miles runAvg speedWind from/ knotsBaromVisibWave heightAir tempDewpointWater temp
2017-Nov-25 16:00N 41°17' E 140°13'510.0
2017-Nov-25 15:29N 41°20' E 140°19'510.1
2017-Nov-25 14:59N 41°23' E 140°25'510.3
2017-Nov-25 14:30N 41°26' E 140°30'611.1
2017-Nov-25 14:00N 41°28' E 140°36'510.5
2017-Nov-25 13:30N 41°31' E 140°42'510.6
2017-Nov-25 13:00N 41°34' E 140°48'510.9
2017-Nov-25 12:30N 41°38' E 140°54'611.7
2017-Nov-25 12:00N 41°38' E 141°02'511.0
2017-Nov-25 11:30N 41°38' E 141°09'612.0
2017-Nov-25 11:00N 41°38' E 141°17'712.0
2017-Nov-25 10:27N 41°39' E 141°26'410.3
2017-Nov-25 10:00N 41°38' E 141°32'  
Track history (hours):
 
Tides and Currents Weather Stations Pressure Air Temp Water Temp Dewpoint Dewpoint Depression Visibility Wind Speed Wind Dir Waves Ship Positions

Nan May

Last reported at 2017-Nov-25 16:00 UTC. Time now 2018-Jan-21 03:08 UTC.
Position N 41°17' E 140°13'.
Warning: this ship's position is 56 days out of date.

Length 228 m; draft 12.7 m.

Type: Cargo ship. MMSI: 636017371.

Date/timePositionNaut miles runAvg speedWind from/ knotsBaromVisibWave heightAir tempDewpointWater temp
2017-Nov-25 16:00N 41°17' E 140°13'510.0
2017-Nov-25 15:29N 41°20' E 140°19'510.1
2017-Nov-25 14:59N 41°23' E 140°25'510.3
2017-Nov-25 14:30N 41°26' E 140°30'611.1
2017-Nov-25 14:00N 41°28' E 140°36'510.5
2017-Nov-25 13:30N 41°31' E 140°42'510.6
2017-Nov-25 13:00N 41°34' E 140°48'510.9
2017-Nov-25 12:30N 41°38' E 140°54'611.7
2017-Nov-25 12:00N 41°38' E 141°02'511.0
2017-Nov-25 11:30N 41°38' E 141°09'612.0
2017-Nov-25 11:00N 41°38' E 141°17'712.0
2017-Nov-25 10:27N 41°39' E 141°26'410.3
2017-Nov-25 10:00N 41°38' E 141°32'  

Dump ship's entire track history